createdAt,value
2017-09-07T00:00:18.871Z,86.96
2017-09-07T00:00:59.452Z,86.96
2017-09-07T00:01:40.032Z,86.86
2017-09-07T00:02:20.609Z,88.01
2017-09-07T00:03:01.197Z,87.43
2017-09-07T00:03:41.768Z,86.86
2017-09-07T00:04:22.370Z,87.53
2017-09-07T00:05:02.948Z,87.91
2017-09-07T00:05:43.531Z,87.62
2017-09-07T00:06:24.107Z,87.62
2017-09-07T00:07:04.687Z,88.01
2017-09-07T00:07:45.266Z,87.82
2017-09-07T00:08:25.853Z,87.91
2017-09-07T00:09:06.442Z,88.1
2017-09-07T00:09:47.027Z,88.2
2017-09-07T00:10:27.618Z,88.29
2017-09-07T00:11:08.211Z,88.48
2017-09-07T00:11:48.785Z,88.01
2017-09-07T00:12:29.371Z,88.48
2017-09-07T00:13:09.955Z,88.96
2017-09-07T00:13:50.549Z,88.39
2017-09-07T00:14:31.121Z,88.77
2017-09-07T00:15:11.701Z,88.96
2017-09-07T00:15:52.285Z,88.39
2017-09-07T00:16:32.863Z,88.96
2017-09-07T00:17:13.437Z,88.39
2017-09-07T00:17:54.030Z,88.48
2017-09-07T00:18:34.610Z,88.68
2017-09-07T00:19:15.190Z,89.06
2017-09-07T00:19:55.782Z,89.06
2017-09-07T00:20:36.360Z,88.87
2017-09-07T00:21:16.951Z,89.63
2017-09-07T00:21:57.531Z,89.63
2017-09-07T00:22:38.102Z,89.73
2017-09-07T00:23:18.686Z,89.82
2017-09-07T00:23:59.270Z,90.01
2017-09-07T00:25:51.896Z,89.25
2017-09-07T00:26:32.470Z,89.06
2017-09-07T00:27:13.053Z,90.2
2017-09-07T00:27:53.641Z,89.63
2017-09-07T00:28:34.217Z,90.01
2017-09-07T00:29:14.800Z,89.63
2017-09-07T00:29:55.385Z,89.73
2017-09-07T00:30:35.958Z,88.87
2017-09-07T00:31:16.538Z,89.82
2017-09-07T00:31:57.121Z,89.06
2017-09-07T00:32:37.703Z,89.25
2017-09-07T00:33:18.282Z,89.53
2017-09-07T00:33:58.868Z,89.15
2017-09-07T00:34:39.457Z,88.96
2017-09-07T00:35:20.029Z,88.96
2017-09-07T00:36:00.611Z,89.25
2017-09-07T00:36:41.197Z,89.25
2017-09-07T00:37:21.776Z,89.25
2017-09-07T00:38:02.361Z,89.25
2017-09-07T00:38:42.937Z,88.96
2017-09-07T00:39:23.500Z,89.25
2017-09-07T00:40:04.087Z,89.01
2017-09-07T00:40:44.671Z,88.58
2017-09-07T00:41:25.253Z,88.53
2017-09-07T00:42:05.835Z,88.96
2017-09-07T00:42:46.404Z,88.68
2017-09-07T00:43:26.994Z,88.68
2017-09-07T00:44:07.568Z,88.53
2017-09-07T00:44:48.149Z,88.2
2017-09-07T00:45:28.733Z,88.72
2017-09-07T00:46:09.320Z,88.39
2017-09-07T00:46:49.902Z,87.66
2017-09-07T00:47:30.487Z,88.2
2017-09-07T00:48:11.057Z,88.15
2017-09-07T00:48:51.642Z,88.53
2017-09-07T00:49:32.211Z,88.39
2017-09-07T00:50:12.785Z,88.2
2017-09-07T00:50:53.363Z,88.87
2017-09-07T00:51:33.950Z,88.68
2017-09-07T00:52:14.530Z,88.29
2017-09-07T00:52:55.119Z,88.58
2017-09-07T00:53:35.703Z,88.58
2017-09-07T00:54:16.284Z,88.87
2017-09-07T00:54:56.875Z,88.68
2017-09-07T00:55:37.459Z,88.87
2017-09-07T00:56:18.039Z,88.29
2017-09-07T00:56:58.629Z,88.72
2017-09-07T00:57:39.211Z,88.72
2017-09-07T00:58:19.783Z,88.72
2017-09-07T00:59:00.370Z,87.66
2017-09-07T00:59:40.937Z,88.34
2017-09-07T01:00:21.523Z,87.86
2017-09-07T01:01:02.102Z,87.95
2017-09-07T01:01:42.691Z,87.86
2017-09-07T01:02:23.268Z,88.53
2017-09-07T01:03:03.841Z,88.53
2017-09-07T01:03:44.421Z,88.53
2017-09-07T01:04:24.993Z,88.43
2017-09-07T01:05:05.566Z,88.53
2017-09-07T01:05:46.158Z,88.53
2017-09-07T01:06:26.736Z,88.34
2017-09-07T01:07:07.319Z,87.62
2017-09-07T01:07:47.900Z,87.86
2017-09-07T01:08:28.483Z,87.48
2017-09-07T01:09:09.059Z,87.15
2017-09-07T01:09:49.641Z,86.67
2017-09-07T01:10:30.231Z,87.15
2017-09-07T01:11:10.817Z,86.52
2017-09-07T01:11:51.398Z,86.96
2017-09-07T01:12:31.985Z,86.96
2017-09-07T01:13:12.568Z,87.34
2017-09-07T01:13:53.145Z,87.15
2017-09-07T01:14:33.729Z,86.67
2017-09-07T01:15:14.314Z,87.15
2017-09-07T01:15:54.898Z,86.57
2017-09-07T01:16:35.482Z,86.47
2017-09-07T01:17:16.062Z,86.71
2017-09-07T01:17:56.639Z,86.47
2017-09-07T01:18:37.209Z,86.47
2017-09-07T01:19:17.800Z,86.38
2017-09-07T01:19:58.387Z,86.47
2017-09-07T01:20:38.978Z,85.81
2017-09-07T01:21:19.552Z,86.33
2017-09-07T01:22:00.134Z,86.23
2017-09-07T01:22:40.714Z,85.75
2017-09-07T01:23:21.299Z,86
2017-09-07T01:24:01.884Z,86.23
2017-09-07T01:24:42.462Z,86.14
2017-09-07T01:25:23.045Z,86.29
2017-09-07T01:26:03.623Z,86.47
2017-09-07T01:26:44.209Z,86.19
2017-09-07T01:27:24.795Z,85.81
2017-09-07T01:28:05.373Z,86
2017-09-07T01:28:45.956Z,85.28
2017-09-07T01:29:26.535Z,85.66
2017-09-07T01:30:07.114Z,86.14
2017-09-07T01:30:47.703Z,85.28
2017-09-07T01:31:28.269Z,85.33
2017-09-07T01:32:08.839Z,84.85
2017-09-07T01:32:49.427Z,85.33
2017-09-07T01:33:30.000Z,85.62
2017-09-07T01:34:10.632Z,85.62
2017-09-07T01:34:51.173Z,85.14
2017-09-07T01:35:31.747Z,85.33
2017-09-07T01:36:12.329Z,84.85
2017-09-07T01:36:52.905Z,86.1
2017-09-07T01:37:33.482Z,84.85
2017-09-07T01:38:14.060Z,84.56
2017-09-07T01:38:54.643Z,84.8
2017-09-07T01:39:35.233Z,84.85
2017-09-07T01:40:15.822Z,84.95
2017-09-07T01:40:56.408Z,85.42
2017-09-07T01:41:36.981Z,85.33
2017-09-07T01:42:17.558Z,85.05
2017-09-07T01:42:58.146Z,85.24
2017-09-07T01:43:38.721Z,85.24
2017-09-07T01:44:19.306Z,85.52
2017-09-07T01:44:59.893Z,85.71
2017-09-07T01:45:40.476Z,85.62
2017-09-07T01:46:21.058Z,85.62
2017-09-07T01:47:01.639Z,85.24
2017-09-07T01:47:42.225Z,85.52
2017-09-07T01:48:22.815Z,85.71
2017-09-07T01:49:03.393Z,85.42
2017-09-07T01:49:43.973Z,86.29
2017-09-07T01:50:24.561Z,86.19
2017-09-07T01:51:05.146Z,85.42
2017-09-07T01:51:45.736Z,85.52
2017-09-07T01:52:26.322Z,85.24
2017-09-07T01:53:06.909Z,85.33
2017-09-07T01:53:47.503Z,85.24
2017-09-07T01:54:28.077Z,85.62
2017-09-07T01:55:08.660Z,85.52
2017-09-07T01:55:49.240Z,85.62
2017-09-07T01:56:29.817Z,84.76
2017-09-07T01:57:10.402Z,84.66
2017-09-07T01:57:50.986Z,84.95
2017-09-07T01:58:31.566Z,84.66
2017-09-07T01:59:12.150Z,84.85
2017-09-07T01:59:52.739Z,85.42
2017-09-07T02:00:33.325Z,84.76
2017-09-07T02:01:13.912Z,84.85
2017-09-07T02:01:54.488Z,84.95
2017-09-07T02:02:35.075Z,84.56
2017-09-07T02:03:15.654Z,84.38
2017-09-07T02:03:56.234Z,84.28
2017-09-07T02:04:51.789Z,84.76
2017-09-07T02:05:32.372Z,84.09
2017-09-07T02:06:12.956Z,83.61
2017-09-07T02:06:53.541Z,83.04
2017-09-07T02:07:34.111Z,83.04
2017-09-07T02:08:14.697Z,82.28
2017-09-07T02:08:55.286Z,83.13
2017-09-07T02:09:35.869Z,83.51
2017-09-07T02:10:16.441Z,83.13
2017-09-07T02:10:57.022Z,82.84
2017-09-07T02:11:37.605Z,82.75
2017-09-07T02:12:18.193Z,83.04
2017-09-07T02:12:58.778Z,82.84
2017-09-07T02:13:39.359Z,82.94
2017-09-07T02:14:34.920Z,82.94
2017-09-07T02:15:15.499Z,83.13
2017-09-07T02:15:56.086Z,83.51
2017-09-07T02:16:36.654Z,83.04
2017-09-07T02:17:17.235Z,82.94
2017-09-07T02:17:57.827Z,82.94
2017-09-07T02:18:38.410Z,82.65
2017-09-07T02:19:18.989Z,82.18
2017-09-07T02:19:59.576Z,81.79
2017-09-07T02:20:40.145Z,82.08
2017-09-07T02:21:20.731Z,82.56
2017-09-07T02:22:01.300Z,82.08
2017-09-07T02:22:41.890Z,81.89
2017-09-07T02:23:22.474Z,82.37
2017-09-07T02:24:03.045Z,82.18
2017-09-07T02:24:43.628Z,82.65
2017-09-07T02:25:24.191Z,81.99
2017-09-07T02:26:04.776Z,82.18
2017-09-07T02:26:45.356Z,82.61
2017-09-07T02:27:25.927Z,81.99
2017-09-07T02:28:06.511Z,82.08
2017-09-07T02:28:47.091Z,82.18
2017-09-07T02:29:27.674Z,82.75
2017-09-07T02:30:08.262Z,83.13
2017-09-07T02:30:48.840Z,82.75
2017-09-07T02:31:29.418Z,82.75
2017-09-07T02:32:09.991Z,83
2017-09-07T02:32:50.571Z,83.28
2017-09-07T02:33:31.155Z,83.38
2017-09-07T02:34:11.725Z,83.38
2017-09-07T02:34:52.300Z,83.47
2017-09-07T02:35:32.882Z,83.28
2017-09-07T02:36:13.457Z,83.57
2017-09-07T02:36:54.037Z,84.14
2017-09-07T02:37:34.618Z,84.52
2017-09-07T02:38:15.197Z,84.23
2017-09-07T02:38:55.782Z,84.33
2017-09-07T02:39:36.355Z,84.05
2017-09-07T02:40:16.928Z,84.14
2017-09-07T02:40:57.512Z,83.86
2017-09-07T02:41:38.091Z,84.05
2017-09-07T02:42:18.665Z,84.43
2017-09-07T02:42:59.240Z,84.43
2017-09-07T02:43:39.813Z,84.05
2017-09-07T02:44:20.401Z,84.14
2017-09-07T02:45:00.977Z,84.23
2017-09-07T02:45:41.553Z,84.52
2017-09-07T02:46:22.136Z,84.62
2017-09-07T02:47:02.703Z,84.52
2017-09-07T02:47:43.289Z,84.33
2017-09-07T02:48:23.864Z,84.33
2017-09-07T02:49:04.447Z,84.81
2017-09-07T02:49:45.030Z,84.62
2017-09-07T02:50:25.601Z,84.62
2017-09-07T02:51:06.185Z,84.91
2017-09-07T02:51:46.761Z,84.62
2017-09-07T02:52:27.346Z,85.29
2017-09-07T02:53:07.904Z,85
2017-09-07T02:53:48.484Z,85.38
2017-09-07T02:54:29.072Z,84.81
2017-09-07T02:55:09.652Z,85
2017-09-07T02:55:50.235Z,84.91
2017-09-07T02:56:30.810Z,84.43
2017-09-07T02:57:11.397Z,84.62
2017-09-07T02:57:51.990Z,84.62
2017-09-07T02:58:32.560Z,85.1
2017-09-07T02:59:13.134Z,84.62
2017-09-07T02:59:53.715Z,84.72
2017-09-07T03:00:34.294Z,84.52
2017-09-07T03:01:14.878Z,84.33
2017-09-07T03:01:55.460Z,85.29
2017-09-07T03:02:36.033Z,85.29
2017-09-07T03:03:16.615Z,85.1
2017-09-07T03:03:57.202Z,84.52
2017-09-07T03:04:37.783Z,85.29
2017-09-07T03:05:18.366Z,85.38
2017-09-07T03:05:58.950Z,85.19
2017-09-07T03:06:39.530Z,85.67
2017-09-07T03:07:20.115Z,86.15
2017-09-07T03:08:00.702Z,86.05
2017-09-07T03:08:41.324Z,85.67
2017-09-07T03:09:22.046Z,85.58
2017-09-07T03:10:02.629Z,85.86
2017-09-07T03:10:43.221Z,86.72
2017-09-07T03:11:23.824Z,87.96
2017-09-07T03:12:05.006Z,90.35
2017-09-07T03:12:45.583Z,89.63
2017-09-07T03:13:26.164Z,88.96
2017-09-07T03:14:06.730Z,88.1
2017-09-07T03:14:47.570Z,85.05
2017-09-07T03:15:28.192Z,84.66
2017-09-07T03:16:08.777Z,84.56
2017-09-07T03:16:49.519Z,84.56
2017-09-07T03:17:30.105Z,84.85
2017-09-07T03:18:10.734Z,85.29
2017-09-07T03:18:51.505Z,85.86
2017-09-07T03:19:32.243Z,86.34
2017-09-07T03:20:12.959Z,86.43
2017-09-07T03:20:53.678Z,86.24
2017-09-07T03:21:34.260Z,86.05
2017-09-07T03:22:14.888Z,85.77
2017-09-07T03:22:55.631Z,86.72
2017-09-07T03:23:36.348Z,86.34
2017-09-07T03:24:17.029Z,86.63
2017-09-07T03:24:57.721Z,86.63
2017-09-07T03:25:38.435Z,86.43
2017-09-07T03:26:19.124Z,86.34
2017-09-07T03:26:59.887Z,87.29
2017-09-07T03:27:40.593Z,86.91
2017-09-07T03:28:21.403Z,86.91
2017-09-07T03:29:02.118Z,86.72
2017-09-07T03:29:42.767Z,86.91
2017-09-07T03:30:23.438Z,86.63
2017-09-07T03:31:04.022Z,86.91
2017-09-07T03:31:44.722Z,86.72
2017-09-07T03:32:25.511Z,86.53
2017-09-07T03:33:06.112Z,87.2
2017-09-07T03:33:47.633Z,86.53
2017-09-07T03:34:28.461Z,86.63
2017-09-07T03:35:09.184Z,86.24
2017-09-07T03:35:51.188Z,86.63
2017-09-07T03:36:34.079Z,86.53
2017-09-07T03:37:15.237Z,87.1
2017-09-07T03:37:56.422Z,87.01
2017-09-07T03:38:37.537Z,87.29
2017-09-07T03:39:18.570Z,86.72
2017-09-07T03:39:59.559Z,86.72
2017-09-07T03:40:40.392Z,87.29
2017-09-07T03:41:21.412Z,86.82
2017-09-07T03:42:02.536Z,87.1
2017-09-07T03:42:43.510Z,87.1
2017-09-07T03:43:24.606Z,86.82
2017-09-07T03:44:05.801Z,87.1
2017-09-07T03:44:48.489Z,86.91
2017-09-07T03:45:29.626Z,87.29
2017-09-07T03:46:10.595Z,86.91
2017-09-07T03:46:53.534Z,87.58
2017-09-07T03:47:35.627Z,87.39
2017-09-07T03:48:16.651Z,87.2
2017-09-07T03:48:58.373Z,87.1
2017-09-07T03:49:39.339Z,87.2
2017-09-07T03:50:20.957Z,87.39
2017-09-07T03:51:02.089Z,87.77
2017-09-07T03:51:43.160Z,87.39
2017-09-07T03:52:24.125Z,87.68
2017-09-07T03:53:05.209Z,87.2
2017-09-07T03:53:46.795Z,86.72
2017-09-07T03:54:27.904Z,86.63
2017-09-07T03:55:09.102Z,86.43
2017-09-07T03:55:50.241Z,86.53
2017-09-07T03:56:31.338Z,86.43
2017-09-07T03:57:12.254Z,86.05
2017-09-07T03:57:53.346Z,85.58
2017-09-07T03:58:34.412Z,86.34
2017-09-07T03:59:15.450Z,85.67
2017-09-07T03:59:56.604Z,86.05
2017-09-07T04:00:37.592Z,85.38
2017-09-07T04:01:18.695Z,84.81
2017-09-07T04:01:59.870Z,84.72
2017-09-07T04:02:42.373Z,85.58
2017-09-07T04:03:25.180Z,86.05
2017-09-07T04:04:07.049Z,85.38
2017-09-07T04:04:48.233Z,85.1
2017-09-07T04:05:30.316Z,85.67
2017-09-07T04:06:11.660Z,84.72
2017-09-07T04:06:52.775Z,84.62
2017-09-07T04:07:36.558Z,84.81
2017-09-07T04:08:18.428Z,85.19
2017-09-07T04:08:59.606Z,84.91
2017-09-07T04:09:40.610Z,84.91
2017-09-07T04:10:21.740Z,84.14
2017-09-07T04:11:02.728Z,85
2017-09-07T04:11:43.690Z,84.43
2017-09-07T04:12:24.772Z,84.72
2017-09-07T04:13:05.931Z,85.58
2017-09-07T04:13:46.937Z,85.1
2017-09-07T04:14:27.648Z,85.58
2017-09-07T04:15:08.717Z,85.48
2017-09-07T04:15:50.633Z,85.38
2017-09-07T04:16:31.734Z,85.38
2017-09-07T04:17:12.782Z,85.77
2017-09-07T04:17:54.712Z,85
2017-09-07T04:18:35.896Z,84.52
2017-09-07T04:19:16.961Z,84.81
2017-09-07T04:19:58.034Z,84.91
2017-09-07T04:20:39.099Z,84.91
2017-09-07T04:21:20.232Z,84.72
2017-09-07T04:22:01.229Z,84.81
2017-09-07T04:22:42.374Z,84.91
2017-09-07T04:23:24.114Z,85
2017-09-07T04:24:05.270Z,85.48
2017-09-07T04:24:46.424Z,85.38
2017-09-07T04:25:27.418Z,85.29
2017-09-07T04:26:08.604Z,85.58
2017-09-07T04:26:50.643Z,84.91
2017-09-07T04:27:31.777Z,85.48
2017-09-07T04:28:12.723Z,85.29
2017-09-07T04:28:53.637Z,85.48
2017-09-07T04:29:34.810Z,85.29
2017-09-07T04:30:15.910Z,85.29
2017-09-07T04:30:56.960Z,85.58
2017-09-07T04:31:38.107Z,85.77
2017-09-07T04:32:19.179Z,86.15
2017-09-07T04:33:00.349Z,86.43
2017-09-07T04:33:41.310Z,85.96
2017-09-07T04:34:22.533Z,85.96
2017-09-07T04:35:03.547Z,85.96
2017-09-07T04:35:45.299Z,85.48
2017-09-07T04:36:26.361Z,85.86
2017-09-07T04:37:07.566Z,85.96
2017-09-07T04:37:48.562Z,86.05
2017-09-07T04:38:30.135Z,86.15
2017-09-07T04:39:11.263Z,86
2017-09-07T04:39:53.142Z,86.24
2017-09-07T04:40:34.932Z,86.63
2017-09-07T04:41:15.963Z,87.01
2017-09-07T04:41:57.926Z,87.2
2017-09-07T04:42:39.055Z,87.77
2017-09-07T04:43:20.156Z,87.34
2017-09-07T04:44:01.316Z,87.2
2017-09-07T04:44:42.357Z,88.54
2017-09-07T04:45:23.323Z,89.2
2017-09-07T04:46:04.537Z,89.11
2017-09-07T04:46:45.667Z,89.78
2017-09-07T04:47:26.762Z,90.16
2017-09-07T04:48:07.861Z,91.3
2017-09-07T04:48:48.858Z,91.3
2017-09-07T04:49:29.844Z,91.11
2017-09-07T04:50:10.722Z,91.02
2017-09-07T04:50:51.624Z,91.11
2017-09-07T04:51:32.679Z,91.69
2017-09-07T04:52:13.748Z,91.78
2017-09-07T04:52:55.614Z,92.26
2017-09-07T04:53:36.672Z,91.59
2017-09-07T04:54:17.766Z,91.59
2017-09-07T04:54:59.828Z,92.26
2017-09-07T04:55:40.941Z,92.36
2017-09-07T04:56:21.888Z,92.07
2017-09-07T04:57:02.987Z,92.16
2017-09-07T04:57:44.262Z,92.64
2017-09-07T04:58:25.340Z,92.45
2017-09-07T04:59:06.347Z,93.21
2017-09-07T04:59:47.980Z,92.45
2017-09-07T05:00:30.216Z,92.64
2017-09-07T05:01:11.203Z,92.26
2017-09-07T05:01:52.920Z,92.93
2017-09-07T05:02:34.122Z,93.41
2017-09-07T05:03:15.877Z,93.31
2017-09-07T05:03:57.611Z,92.83
2017-09-07T05:04:38.683Z,92.83
2017-09-07T05:05:19.644Z,93.5
2017-09-07T05:06:01.329Z,93.41
2017-09-07T05:06:42.492Z,94.17
2017-09-07T05:07:24.467Z,94.74
2017-09-07T05:08:05.523Z,93.98
2017-09-07T05:08:46.690Z,93.6
2017-09-07T05:09:27.730Z,93.5
2017-09-07T05:10:08.715Z,94.17
2017-09-07T05:10:50.676Z,94.93
2017-09-07T05:11:31.842Z,94.74
2017-09-07T05:12:13.906Z,95.41
2017-09-07T05:12:54.888Z,95.98
2017-09-07T05:13:37.454Z,95.03
2017-09-07T05:14:18.394Z,95.32
2017-09-07T05:15:00.387Z,95.98
2017-09-07T05:15:41.424Z,95.32
2017-09-07T05:16:22.561Z,95.12
2017-09-07T05:17:03.541Z,93.98
2017-09-07T05:17:44.631Z,94.07
2017-09-07T05:18:25.761Z,94.17
2017-09-07T05:19:06.769Z,94.17
2017-09-07T05:19:47.795Z,95.03
2017-09-07T05:20:28.838Z,95.51
2017-09-07T05:21:09.783Z,95.41
2017-09-07T05:21:50.654Z,94.84
2017-09-07T05:22:31.849Z,94.17
2017-09-07T05:23:15.307Z,93.98
2017-09-07T05:23:56.166Z,95.03
2017-09-07T05:24:37.218Z,95.12
2017-09-07T05:25:18.254Z,95.41
2017-09-07T05:26:00.137Z,94.93
2017-09-07T05:26:41.030Z,95.17
2017-09-07T05:27:22.105Z,94.74
2017-09-07T05:28:03.110Z,94.74
2017-09-07T05:28:44.163Z,94.27
2017-09-07T05:29:25.345Z,94.36
2017-09-07T05:30:07.219Z,93.7
2017-09-07T05:30:48.224Z,94.27
2017-09-07T05:31:29.304Z,94.07
2017-09-07T05:32:10.443Z,93.7
2017-09-07T05:32:51.538Z,94.07
2017-09-07T05:33:32.792Z,95.36
2017-09-07T05:34:14.012Z,94.41
2017-09-07T05:34:54.958Z,94.7
2017-09-07T05:35:36.113Z,94.6
2017-09-07T05:36:17.232Z,94.51
2017-09-07T05:36:59.331Z,94.6
2017-09-07T05:37:41.211Z,93.16
2017-09-07T05:38:22.299Z,93.26
2017-09-07T05:39:03.309Z,94.51
2017-09-07T05:39:44.214Z,94.31
2017-09-07T05:40:25.325Z,94.12
2017-09-07T05:41:06.324Z,94.89
2017-09-07T05:41:47.371Z,94.31
2017-09-07T05:42:29.394Z,94.02
2017-09-07T05:43:10.674Z,94.51
2017-09-07T05:43:51.682Z,94.51
2017-09-07T05:44:32.920Z,95.27
2017-09-07T05:45:13.971Z,95.36
2017-09-07T05:45:55.212Z,95.22
2017-09-07T05:46:36.317Z,94.7
2017-09-07T05:47:17.318Z,92.93
2017-09-07T05:47:59.219Z,92.93
2017-09-07T05:48:40.347Z,92.93
2017-09-07T05:49:21.407Z,92.45
2017-09-07T05:50:02.483Z,92.45
2017-09-07T05:50:43.541Z,92.35
2017-09-07T05:51:25.682Z,91.78
2017-09-07T05:52:07.364Z,92.25
2017-09-07T05:52:49.200Z,92.25
2017-09-07T05:53:30.206Z,92.83
2017-09-07T05:54:11.320Z,92.45
2017-09-07T05:54:53.218Z,91.88
2017-09-07T05:55:34.447Z,92.54
2017-09-07T05:56:16.552Z,92.35
2017-09-07T05:56:57.619Z,91.49
2017-09-07T05:57:38.575Z,91.11
2017-09-07T05:58:19.541Z,90.63
2017-09-07T05:59:00.600Z,90.58
2017-09-07T05:59:42.227Z,91.16
2017-09-07T06:00:23.302Z,90.87
2017-09-07T06:01:04.139Z,89.15
2017-09-07T06:01:46.964Z,89.05
2017-09-07T06:02:28.896Z,89.34
2017-09-07T06:03:10.573Z,89.15
2017-09-07T06:03:51.549Z,89.05
2017-09-07T06:04:33.970Z,89.24
2017-09-07T06:05:14.970Z,88.86
2017-09-07T06:05:56.090Z,88.86
2017-09-07T06:06:37.111Z,87.81
2017-09-07T06:07:18.128Z,87.9
2017-09-07T06:07:59.696Z,88.86
2017-09-07T06:08:40.709Z,89.15
2017-09-07T06:09:21.792Z,89.62
2017-09-07T06:10:03.476Z,88.76
2017-09-07T06:10:44.629Z,88.29
2017-09-07T06:11:25.568Z,88
2017-09-07T06:12:06.704Z,87.23
2017-09-07T06:12:47.829Z,87.33
2017-09-07T06:13:29.844Z,87.27
2017-09-07T06:14:10.899Z,87.95
2017-09-07T06:14:51.959Z,87.27
2017-09-07T06:15:33.171Z,87.76
2017-09-07T06:16:14.170Z,87.27
2017-09-07T06:16:55.351Z,87.85
2017-09-07T06:17:36.419Z,88.04
2017-09-07T06:18:18.469Z,86.8
2017-09-07T06:18:59.464Z,86.57
2017-09-07T06:19:40.445Z,87.43
2017-09-07T06:20:21.515Z,87.18
2017-09-07T06:21:02.663Z,87.18
2017-09-07T06:21:43.543Z,87.27
2017-09-07T06:22:24.548Z,87.47
2017-09-07T06:23:07.226Z,87.85
2017-09-07T06:23:48.242Z,86.13
2017-09-07T06:24:29.351Z,86.22
2017-09-07T06:25:10.496Z,86.51
2017-09-07T06:25:52.112Z,85.41
2017-09-07T06:26:33.145Z,84.64
2017-09-07T06:27:14.268Z,83.01
2017-09-07T06:27:55.992Z,83.39
2017-09-07T06:28:37.757Z,83.01
2017-09-07T06:29:18.756Z,83.97
2017-09-07T06:29:59.846Z,84.55
2017-09-07T06:30:40.908Z,84.26
2017-09-07T06:31:21.956Z,83.3
2017-09-07T06:32:02.892Z,83.11
2017-09-07T06:32:44.696Z,83.3
2017-09-07T06:33:25.971Z,83.36
2017-09-07T06:34:07.043Z,84.12
2017-09-07T06:34:48.119Z,84.59
2017-09-07T06:35:28.970Z,85.27
2017-09-07T06:36:10.191Z,84.69
2017-09-07T06:36:52.088Z,83.73
2017-09-07T06:37:34.203Z,84.79
2017-09-07T06:38:16.933Z,84.69
2017-09-07T06:38:58.392Z,85.27
2017-09-07T06:39:39.345Z,85.75
2017-09-07T06:40:20.422Z,83.64
2017-09-07T06:41:01.481Z,82.49
2017-09-07T06:41:42.576Z,83.54
2017-09-07T06:42:24.422Z,84.41
2017-09-07T06:43:05.505Z,83.93
2017-09-07T06:43:46.576Z,83.16
2017-09-07T06:44:27.716Z,83.36
2017-09-07T06:45:08.865Z,84.02
2017-09-07T06:45:49.797Z,83.45
2017-09-07T06:46:31.011Z,83.54
2017-09-07T06:47:12.622Z,84.12
2017-09-07T06:47:53.721Z,83.64
2017-09-07T06:48:34.739Z,83.73
2017-09-07T06:49:17.625Z,82.87
2017-09-07T06:49:58.793Z,83.26
2017-09-07T06:50:39.754Z,83.26
2017-09-07T06:51:20.866Z,82.63
2017-09-07T06:52:02.036Z,83.01
2017-09-07T06:52:43.152Z,82.78
2017-09-07T06:53:24.319Z,83.06
2017-09-07T06:54:05.387Z,83.3
2017-09-07T06:54:47.094Z,82.78
2017-09-07T06:55:28.141Z,82.63
2017-09-07T06:56:09.206Z,82.92
2017-09-07T06:56:52.027Z,83.78
2017-09-07T06:57:33.631Z,82.97
2017-09-07T06:58:15.553Z,82.06
2017-09-07T06:58:56.554Z,82.3
2017-09-07T06:59:38.261Z,82.49
2017-09-07T07:00:19.218Z,83.59
2017-09-07T07:01:00.188Z,83.49
2017-09-07T07:01:41.383Z,83.2
2017-09-07T07:02:23.377Z,82.82
2017-09-07T07:03:04.419Z,81.67
2017-09-07T07:03:45.423Z,81.57
2017-09-07T07:04:26.511Z,81.96
2017-09-07T07:05:07.628Z,81.96
2017-09-07T07:05:48.727Z,83.3
2017-09-07T07:06:30.248Z,84.06
2017-09-07T07:07:11.264Z,81.77
2017-09-07T07:07:52.204Z,82.09
2017-09-07T07:08:33.984Z,81.77
2017-09-07T07:09:15.554Z,82.15
2017-09-07T07:09:56.742Z,81.71
2017-09-07T07:10:38.533Z,81
2017-09-07T07:11:20.520Z,82.38
2017-09-07T07:12:02.501Z,82.09
2017-09-07T07:12:43.520Z,81.9
2017-09-07T07:13:24.563Z,80.79
2017-09-07T07:14:06.700Z,79.93
2017-09-07T07:14:47.810Z,80.32
2017-09-07T07:15:28.836Z,78.97
2017-09-07T07:16:09.772Z,79.07
2017-09-07T07:16:51.685Z,79.93
2017-09-07T07:17:34.286Z,79.83
2017-09-07T07:18:15.366Z,78.2
2017-09-07T07:18:56.479Z,79.16
2017-09-07T07:19:37.550Z,79.11
2017-09-07T07:20:19.608Z,77.67
2017-09-07T07:21:00.680Z,77.29
2017-09-07T07:21:42.335Z,77.38
2017-09-07T07:22:23.917Z,76.75
2017-09-07T07:23:05.582Z,77.33
2017-09-07T07:23:46.564Z,76.23
2017-09-07T07:24:27.682Z,76.42
2017-09-07T07:25:08.824Z,76.52
2017-09-07T07:25:49.929Z,76.27
2017-09-07T07:26:31.571Z,77
2017-09-07T07:27:12.662Z,76.42
2017-09-07T07:27:55.114Z,76.07
2017-09-07T07:28:36.215Z,76.07
2017-09-07T07:29:17.255Z,75.75
2017-09-07T07:29:59.662Z,75.7
2017-09-07T07:30:40.698Z,75.98
2017-09-07T07:31:22.729Z,74.48
2017-09-07T07:32:03.796Z,73.72
2017-09-07T07:32:44.819Z,74.01
2017-09-07T07:33:25.751Z,72.75
2017-09-07T07:34:08.292Z,72.79
2017-09-07T07:34:49.392Z,72.22
2017-09-07T07:35:30.314Z,71.89
2017-09-07T07:36:11.304Z,71.31
2017-09-07T07:36:54.175Z,70.68
2017-09-07T07:37:35.216Z,71.25
2017-09-07T07:38:16.294Z,71.35
2017-09-07T07:38:57.146Z,69.91
2017-09-07T07:39:38.132Z,69.91
2017-09-07T07:40:19.894Z,69.72
2017-09-07T07:41:00.967Z,70.52
2017-09-07T07:41:42.026Z,70.72
2017-09-07T07:42:23.090Z,70.04
2017-09-07T07:43:04.228Z,69.37
2017-09-07T07:43:45.302Z,68.25
2017-09-07T07:44:26.429Z,67.64
2017-09-07T07:45:07.668Z,68.6
2017-09-07T07:45:48.762Z,68.7
2017-09-07T07:46:29.925Z,69.08
2017-09-07T07:47:10.849Z,69.46
2017-09-07T07:47:51.942Z,67.07
2017-09-07T07:48:33.137Z,67.45
2017-09-07T07:49:14.291Z,67.45
2017-09-07T07:49:55.317Z,66.23
2017-09-07T07:50:36.418Z,66.3
2017-09-07T07:51:17.338Z,66.52
2017-09-07T07:51:58.411Z,66.65
2017-09-07T07:52:39.571Z,65.97
2017-09-07T07:53:20.721Z,64.66
2017-09-07T07:54:01.711Z,64.56
2017-09-07T07:54:43.145Z,63.7
2017-09-07T07:55:24.224Z,64.28
2017-09-07T07:56:05.327Z,64.28
2017-09-07T07:56:46.336Z,64.08
2017-09-07T07:57:27.358Z,63.12
2017-09-07T07:58:08.561Z,64.18
2017-09-07T07:58:49.702Z,63.6
2017-09-07T07:59:30.832Z,63.15
2017-09-07T08:00:11.860Z,62.87
2017-09-07T08:00:52.979Z,62.54
2017-09-07T08:01:34.898Z,62.54
2017-09-07T08:02:16.704Z,63.67
2017-09-07T08:02:57.832Z,64.63
2017-09-07T08:03:39.020Z,64.56
2017-09-07T08:04:20.126Z,64.66
2017-09-07T08:05:01.280Z,63.7
2017-09-07T08:05:42.371Z,63.41
2017-09-07T08:06:23.331Z,63.57
2017-09-07T08:07:04.438Z,63.79
2017-09-07T08:07:45.555Z,62.83
2017-09-07T08:08:27.211Z,63.02
2017-09-07T08:09:08.373Z,63.51
2017-09-07T08:09:50.444Z,63.22
2017-09-07T08:10:31.666Z,63.12
2017-09-07T08:11:12.718Z,62.83
2017-09-07T08:11:53.893Z,63.15
2017-09-07T08:12:35.797Z,62.19
2017-09-07T08:13:16.858Z,61.65
2017-09-07T08:13:58.657Z,61.83
2017-09-07T08:14:40.168Z,61.61
2017-09-07T08:15:21.654Z,62.51
2017-09-07T08:16:02.701Z,61.65
2017-09-07T08:16:43.810Z,62.29
2017-09-07T08:17:24.939Z,61.61
2017-09-07T08:18:05.994Z,61.29
2017-09-07T08:18:47.010Z,61.77
2017-09-07T08:19:28.915Z,61.22
2017-09-07T08:20:10.679Z,60.68
2017-09-07T08:20:51.862Z,59.36
2017-09-07T08:21:35.140Z,58.14
2017-09-07T08:22:16.320Z,57.29
2017-09-07T08:22:58.071Z,56.36
2017-09-07T08:23:39.020Z,55.45
2017-09-07T08:24:19.956Z,53.49
2017-09-07T08:25:00.879Z,55.2
2017-09-07T08:25:41.909Z,54.72
2017-09-07T08:26:22.750Z,56.07
2017-09-07T08:27:03.342Z,55.08
2017-09-07T08:27:43.927Z,55.66
2017-09-07T08:28:24.502Z,55.46
2017-09-07T08:29:05.105Z,56.33
2017-09-07T08:29:45.683Z,56.11
2017-09-07T08:30:26.269Z,56.11
2017-09-07T08:31:06.844Z,56.18
2017-09-07T08:31:47.433Z,56.57
2017-09-07T08:32:28.008Z,58.75
2017-09-07T08:33:08.610Z,58.27
2017-09-07T08:33:49.197Z,58.08
2017-09-07T08:35:41.831Z,61.1
2017-09-07T08:36:22.419Z,60.91
2017-09-07T08:37:02.996Z,61.22
2017-09-07T08:37:43.588Z,61.04
2017-09-07T08:38:24.175Z,61.61
2017-09-07T08:39:04.764Z,62.29
2017-09-07T08:39:45.346Z,60.46
2017-09-07T08:40:25.935Z,60.75
2017-09-07T08:41:06.524Z,60.75
2017-09-07T08:41:47.090Z,61.71
2017-09-07T08:42:27.685Z,62.35
2017-09-07T08:43:08.270Z,63.06
2017-09-07T08:43:48.850Z,61.32
2017-09-07T08:44:29.416Z,62.77
2017-09-07T08:45:09.999Z,63.06
2017-09-07T08:45:50.585Z,61.42
2017-09-07T08:46:31.178Z,60.77
2017-09-07T08:47:11.750Z,60.1
2017-09-07T08:47:52.336Z,61.13
2017-09-07T08:48:32.921Z,61.71
2017-09-07T08:49:13.504Z,61.35
2017-09-07T08:49:54.089Z,61.83
2017-09-07T08:50:34.678Z,59.91
2017-09-07T08:51:15.262Z,59.91
2017-09-07T08:51:55.816Z,59.97
2017-09-07T08:52:36.407Z,59.14